Friday, May 25, 2018, 8:49 AM EDT
Back to Local

KCON, Concord, Concord Municipal Airport

Location: Concord, NH, United States Lat: 43.195
Local Time: 8:49 AM EDT (12:49 GMT) Lon: -71.501
Time Zone: US/Eastern Elev: 344 ft

Show me the last for .
Show Coded

Time T Td Feel RH Dir Speed Gust Alt SLP Vis Weather Sky Remarks
2018-05-25 07:51 65 51 - 60 110° 5 - 29.90 29.90 10 CLR 6-hr Min Temp (8am): 46.0°F
6-hr Max Temp (8am): 64.9°F
2018-05-25 06:51 58 51 - 77 150° 6 - 29.92 29.91 10 CLR None
2018-05-25 05:51 48 45 45 89 150° 6 - 29.93 29.92 10 CLR None
2018-05-25 04:51 47 45 - 92 - Calm - 29.93 29.93 10 CLR None
2018-05-25 03:51 49 46 - 89 - Calm - 29.94 29.94 10 CLR None
2018-05-25 02:51 51 48 - 89 160° 3 - 29.95 29.95 10 CLR None
2018-05-25 01:51 54 49 - 83 160° 3 - 29.97 29.97 10 CLR 6-hr Min Temp (2am): 52.0°F
6-hr Max Temp (2am): 69.1°F
2018-05-25 00:51 55 49 - 79 - Calm - 29.99 29.99 10 CLR 24-hr Min Temp (1am): 46.9°F
24-hr Max Temp (1am): 77.0°F
2018-05-24 23:51 58 50 - 74 150° 6 - 30.00 30.00 10 CLR None
2018-05-24 22:51 59 49 - 69 180° 6 - 30.01 30.01 10 CLR None
2018-05-24 21:51 58 44 - 59 130° 3 - 30.03 30.03 10 CLR None
2018-05-24 20:51 61 44 - 53 - Calm - 30.02 30.02 10 CLR None
2018-05-24 19:51 69 40 - 34 - Calm - 30.01 30.01 10 CLR 6-hr Min Temp (8pm): 69.1°F
6-hr Max Temp (8pm): 77.0°F
2018-05-24 18:51 75 34 - 22 270° 5 - 30.01 30.01 10 CLR None
2018-05-24 17:51 76 33 - 20 300° 13 22 30.03 30.03 10 CLR None
2018-05-24 16:51 76 32 - 20 320° 15 - 30.03 30.03 10 CLR None
2018-05-24 15:51 76 33 - 20 330° 14 17 30.05 30.05 10 CLR None
2018-05-24 14:51 74 33 - 22 320° 16 21 30.07 30.06 10 CLR None
2018-05-24 13:51 73 34 - 23 290° 22 25 30.08 30.08 10 CLR 6-hr Min Temp (2pm): 57.9°F
6-hr Max Temp (2pm): 73.9°F
2018-05-24 12:51 72 34 - 24 320° 12 21 30.10 30.10 10 CLR None
2018-05-24 11:51 67 32 - 27 310° 8 - 30.11 30.11 10 BKN080 None
2018-05-24 10:51 68 34 - 28 310° 7 - 30.11 30.11 10 FEW095 None
2018-05-24 09:51 65 34 - 31 310° 10 - 30.11 30.10 10 OVC095 None
2018-05-24 08:51 62 39 - 42 330° 9 - 30.11 30.11 10 CLR None

Support USWX by starting your Amazon purchase here.